Time;durP1;ratioP1;P1;durP2;ratioP2;P2;SDS_P1;SDS_P2;PMS_P1;PMS_P2;Temp;Humidity;BMP_temperature;BMP_pressure;BME280_temperature;BME280_humidity;BME280_pressure;Samples;Min_cycle;Max_cycle;Signal;HPM_P1;HPM_P2
2022/01/16 00:04:06;;;;;;;6.45;5.57;;;19.80;42.10;;;;;;5115945;28;20022;-60
2022/01/16 00:04:54;;;;;;;6.00;5.40;;;19.70;42.10;;;;;;5116191;28;20103;-59
2022/01/16 00:07:21;;;;;;;6.57;5.93;;;19.80;42.00;;;;;;5116700;28;20040;-58
2022/01/16 00:09:49;;;;;;;9.15;5.47;;;19.80;42.00;;;;;;5117507;28;20031;-58
2022/01/16 00:12:18;;;;;;;7.30;5.70;;;19.80;42.00;;;;;;5117307;28;20019;-58
2022/01/16 00:14:44;;;;;;;6.63;5.70;;;19.80;42.00;;;;;;5117375;28;20513;-59
2022/01/16 00:17:11;;;;;;;6.43;5.32;;;19.80;42.00;;;;;;5117570;28;20008;-58
2022/01/16 00:19:38;;;;;;;5.80;5.30;;;19.80;42.00;;;;;;5117293;28;20069;-58
2022/01/16 00:22:12;;;;;;;6.15;5.55;;;19.80;41.90;;;;;;5117362;28;20034;-58
2022/01/16 00:24:38;;;;;;;6.03;5.43;;;19.80;41.90;;;;;;5116561;28;20026;-58
2022/01/16 00:27:04;;;;;;;6.40;5.38;;;19.80;41.90;;;;;;5115939;28;20016;-59
2022/01/16 00:29:31;;;;;;;6.97;5.80;;;19.90;42.00;;;;;;5115300;28;20023;-58
2022/01/16 00:31:57;;;;;;;9.60;6.03;;;19.80;41.90;;;;;;5116040;28;20023;-58
2022/01/16 00:34:22;;;;;;;9.60;5.60;;;19.90;41.90;;;;;;5114703;28;20370;-58
2022/01/16 00:36:48;;;;;;;6.47;5.72;;;19.80;41.90;;;;;;5115591;28;20019;-58
2022/01/16 00:39:15;;;;;;;6.10;5.50;;;19.80;41.90;;;;;;5115971;28;20035;-59
2022/01/16 00:41:42;;;;;;;6.15;5.55;;;19.80;41.80;;;;;;5115866;28;20016;-58
2022/01/16 00:44:08;;;;;;;5.65;5.15;;;19.90;41.90;;;;;;5115829;28;20083;-59
2022/01/16 00:46:34;;;;;;;6.68;5.97;;;19.90;41.80;;;;;;5116612;28;20043;-58
2022/01/16 00:48:59;;;;;;;6.65;5.63;;;19.80;41.80;;;;;;5116474;28;20007;-58
2022/01/16 00:51:25;;;;;;;6.82;5.90;;;19.80;41.80;;;;;;5115222;28;20031;-58
2022/01/16 00:53:53;;;;;;;6.38;5.78;;;19.80;41.90;;;;;;5116969;28;20019;-58
2022/01/16 00:56:21;;;;;;;7.15;6.22;;;19.90;41.80;;;;;;5115685;28;20035;-58
2022/01/16 00:58:47;;;;;;;6.03;5.43;;;19.90;41.80;;;;;;5117056;28;20019;-58
2022/01/16 01:01:14;;;;;;;7.25;5.85;;;19.90;41.80;;;;;;5115005;28;20011;-58
2022/01/16 01:03:39;;;;;;;6.75;5.57;;;19.90;41.80;;;;;;5116321;28;20102;-58
2022/01/16 01:06:05;;;;;;;7.15;5.80;;;19.80;41.80;;;;;;5116609;28;20061;-58
2022/01/16 01:08:32;;;;;;;6.80;5.60;;;19.80;41.80;;;;;;5115447;28;20054;-58
2022/01/16 01:11:00;;;;;;;5.72;5.13;;;19.90;41.90;;;;;;5115325;28;20100;-58
2022/01/16 01:16:02;;;;;;;8.52;5.07;;;19.90;41.80;;;;;;5115469;28;20024;-58
2022/01/16 01:18:29;;;;;;;6.25;5.65;;;19.90;41.70;;;;;;5116331;28;20015;-59
2022/01/16 01:20:57;;;;;;;6.32;5.05;;;19.90;41.70;;;;;;5115955;28;20038;-59
2022/01/16 01:23:23;;;;;;;6.55;5.72;;;19.90;41.80;;;;;;5115967;28;20051;-58
2022/01/16 01:25:48;;;;;;;8.18;5.97;;;19.90;41.80;;;;;;5116014;28;20075;-58
2022/01/16 01:28:15;;;;;;;6.22;5.60;;;19.90;41.80;;;;;;5114594;28;20035;-58
2022/01/16 01:30:44;;;;;;;7.90;5.30;;;19.90;41.80;;;;;;5115213;28;20497;-57
2022/01/16 01:33:12;;;;;;;6.10;5.50;;;19.90;41.80;;;;;;5115566;28;20027;-58
2022/01/16 01:35:39;;;;;;;6.80;5.40;;;19.90;41.70;;;;;;5113906;28;20012;-57
2022/01/16 01:38:06;;;;;;;6.20;5.30;;;19.90;41.60;;;;;;5115002;28;20024;-58
2022/01/16 01:40:32;;;;;;;6.35;5.68;;;19.90;41.60;;;;;;5117932;28;20012;-58
2022/01/16 01:50:59;;;;;;;5.85;5.25;;;19.90;41.70;;;;;;5119110;28;20058;-58
2022/01/16 01:51:32;;;;;;;6.55;5.60;;;19.90;41.60;;;;;;5118196;28;20081;-57
2022/01/16 01:53:58;;;;;;;6.43;5.82;;;20.00;41.70;;;;;;5119656;28;20020;-59
2022/01/16 01:56:24;;;;;;;6.45;5.45;;;20.00;41.70;;;;;;5120923;28;20019;-58
2022/01/16 01:58:55;;;;;;;6.38;5.72;;;19.90;41.60;;;;;;5120096;28;20016;-58
2022/01/16 02:01:21;;;;;;;6.32;5.55;;;20.00;41.70;;;;;;5121034;28;20043;-58
2022/01/16 02:03:48;;;;;;;6.93;5.57;;;20.00;41.60;;;;;;5119805;28;20094;-57
2022/01/16 02:06:16;;;;;;;6.25;4.82;;;20.00;41.60;;;;;;5120429;28;20103;-58
2022/01/16 02:08:43;;;;;;;6.10;5.15;;;20.00;41.60;;;;;;5119907;28;20039;-58
2022/01/16 02:11:14;;;;;;;6.20;5.60;;;20.00;41.60;;;;;;5120528;28;20020;-58
2022/01/16 02:13:56;;;;;;;;;;;20.00;41.60;;;;;;5119823;28;20016;-58
2022/01/16 02:28:13;;;;;;;6.68;5.55;;;20.00;41.60;;;;;;5118553;28;20497;-58
2022/01/16 02:31:25;;;;;;;6.55;5.15;;;20.00;41.70;;;;;;5118577;28;20043;-59
2022/01/16 02:36:28;;;;;;;5.32;4.78;;;20.00;41.60;;;;;;5118917;28;20034;-56
2022/01/16 02:39:00;;;;;;;6.10;5.20;;;20.00;41.60;;;;;;5118558;28;20011;-58
2022/01/16 02:41:25;;;;;;;;;;;20.00;41.50;;;;;;5119189;28;20047;-58
2022/01/16 02:43:54;;;;;;;5.93;5.32;;;20.00;41.50;;;;;;5118697;28;19961;-58
2022/01/16 02:48:49;;;;;;;5.63;5.13;;;20.00;41.50;;;;;;5116649;28;20422;-58
2022/01/16 02:51:16;;;;;;;6.00;5.10;;;20.00;41.50;;;;;;5117044;28;20027;-60
2022/01/16 02:53:43;;;;;;;6.30;5.15;;;20.00;41.50;;;;;;5117031;28;20027;-59
2022/01/16 02:56:09;;;;;;;6.20;5.38;;;20.00;41.50;;;;;;5116621;28;20020;-58
2022/01/16 02:58:36;;;;;;;6.03;5.30;;;20.00;41.50;;;;;;5116099;28;20077;-58
2022/01/16 03:01:01;;;;;;;6.38;5.43;;;20.00;41.40;;;;;;5116438;28;20024;-57
2022/01/16 03:03:27;;;;;;;6.50;5.30;;;20.00;41.40;;;;;;5116180;28;20024;-58
2022/01/16 03:05:53;;;;;;;5.40;4.90;;;20.10;41.50;;;;;;5116025;28;20497;-57
2022/01/16 03:08:19;;;;;;;5.40;4.90;;;20.00;41.40;;;;;;5116017;28;20059;-58
2022/01/16 03:13:32;;;;;;;5.80;5.20;;;20.00;41.40;;;;;;5116610;28;20508;-58
2022/01/16 03:15:58;;;;;;;5.85;5.10;;;20.10;41.40;;;;;;5116409;28;20019;-58
2022/01/16 03:23:35;;;;;;;6.03;4.97;;;20.00;41.40;;;;;;5116597;28;20076;-58
2022/01/16 03:26:01;;;;;;;4.97;4.50;;;20.00;41.40;;;;;;5116554;28;20026;-57
2022/01/16 03:28:27;;;;;;;5.80;5.05;;;20.00;41.40;;;;;;5115980;28;20043;-58
2022/01/16 03:30:54;;;;;;;5.90;4.95;;;20.00;41.40;;;;;;5116556;28;20436;-58
2022/01/16 03:33:20;;;;;;;6.18;5.57;;;20.10;41.40;;;;;;5116818;28;20062;-58
2022/01/16 03:35:47;;;;;;;5.75;4.85;;;20.00;41.40;;;;;;5117069;28;20020;-61
2022/01/16 03:38:13;;;;;;;5.32;4.50;;;20.10;41.40;;;;;;5116465;28;20019;-58
2022/01/16 03:40:40;;;;;;;7.45;5.63;;;20.10;41.30;;;;;;5116344;28;20027;-58
2022/01/16 03:43:13;;;;;;;5.80;5.20;;;20.10;41.30;;;;;;5116315;28;20020;-58
2022/01/16 03:45:43;;;;;;;5.68;4.85;;;20.00;41.30;;;;;;5116398;28;20016;-57
2022/01/16 03:48:10;;;;;;;5.40;4.90;;;20.10;41.30;;;;;;5116532;28;20023;-56
2022/01/16 03:50:36;;;;;;;5.50;5.00;;;20.10;41.40;;;;;;5116148;28;20012;-58
2022/01/16 03:53:02;;;;;;;5.93;5.15;;;20.10;41.40;;;;;;5114721;28;20073;-58
2022/01/16 03:55:28;;;;;;;8.35;5.25;;;20.10;41.40;;;;;;5116742;28;20026;-58
2022/01/16 03:57:53;;;;;;;5.22;4.72;;;20.10;41.30;;;;;;5114815;28;20466;-56
2022/01/16 04:00:19;;;;;;;6.43;5.47;;;20.10;41.40;;;;;;5114651;28;20073;-58
2022/01/16 04:02:45;;;;;;;5.45;4.72;;;20.10;41.30;;;;;;5115465;28;20488;-57
2022/01/16 04:05:11;;;;;;;5.65;5.05;;;20.10;41.40;;;;;;5114841;28;20118;-58
2022/01/16 04:07:36;;;;;;;5.40;4.68;;;20.10;41.30;;;;;;5116482;28;20391;-58
2022/01/16 04:10:04;;;;;;;7.00;5.35;;;20.10;41.30;;;;;;5116328;28;20032;-58
2022/01/16 04:12:33;;;;;;;6.07;5.10;;;20.10;41.30;;;;;;5116289;28;20072;-58
2022/01/16 04:17:24;;;;;;;5.88;5.28;;;20.10;41.40;;;;;;5116119;28;20405;-58
2022/01/16 04:19:51;;;;;;;6.43;4.78;;;20.10;41.30;;;;;;5115891;28;20554;-59
2022/01/16 04:22:17;;;;;;;6.53;5.07;;;20.10;41.30;;;;;;5115652;28;20027;-57
2022/01/16 04:24:43;;;;;;;5.50;4.80;;;20.10;41.30;;;;;;5115972;28;20031;-58
2022/01/16 04:27:11;;;;;;;5.00;4.55;;;20.10;41.20;;;;;;5116026;28;20023;-58
2022/01/16 04:29:39;;;;;;;5.70;5.10;;;20.10;41.20;;;;;;5115550;28;20012;-57
2022/01/16 04:32:05;;;;;;;5.38;4.60;;;20.10;41.20;;;;;;5115919;28;20027;-57
2022/01/16 04:34:32;;;;;;;5.68;5.10;;;20.10;41.20;;;;;;5115495;28;20028;-58
2022/01/16 04:36:58;;;;;;;5.30;4.80;;;20.10;41.20;;;;;;5115801;28;20022;-59
2022/01/16 04:39:32;;;;;;;6.90;5.00;;;20.10;41.30;;;;;;5115196;28;20023;-58
2022/01/16 04:44:42;;;;;;;5.78;4.47;;;20.10;41.20;;;;;;5115320;28;20507;-57
2022/01/16 04:47:09;;;;;;;5.32;4.82;;;20.10;41.20;;;;;;5115664;28;20047;-58
2022/01/16 04:49:34;;;;;;;5.90;5.30;;;20.10;41.20;;;;;;5116399;28;20031;-58
2022/01/16 04:52:01;;;;;;;6.05;5.18;;;20.10;41.20;;;;;;5116525;28;20016;-58
2022/01/16 04:54:28;;;;;;;5.32;4.68;;;20.10;41.20;;;;;;5116020;28;20022;-58
2022/01/16 04:56:53;;;;;;;6.07;5.47;;;20.10;41.20;;;;;;5116537;28;20019;-58
2022/01/16 04:59:19;;;;;;;5.35;4.57;;;20.20;41.10;;;;;;5115856;28;20359;-57
2022/01/16 05:01:46;;;;;;;5.88;4.85;;;20.20;41.10;;;;;;5115529;28;20023;-59
2022/01/16 05:04:12;;;;;;;6.20;4.88;;;20.10;41.10;;;;;;5115171;28;20088;-59
2022/01/16 05:06:39;;;;;;;5.60;5.07;;;20.10;41.20;;;;;;5115642;28;20015;-58
2022/01/16 05:09:05;;;;;;;6.00;5.20;;;20.10;41.10;;;;;;5115887;28;20045;-59
2022/01/16 05:11:31;;;;;;;6.00;4.93;;;20.10;41.40;;;;;;5115790;28;20027;-59
2022/01/16 05:19:07;;;;;;;5.45;4.85;;;20.20;41.10;;;;;;5116105;28;20024;-59
2022/01/16 05:21:33;;;;;;;5.47;4.97;;;20.20;41.10;;;;;;5115116;28;20482;-58
2022/01/16 05:24:02;;;;;;;5.28;4.78;;;20.10;41.10;;;;;;5114826;28;20045;-58
2022/01/16 05:26:29;;;;;;;4.88;4.38;;;20.10;41.10;;;;;;5115552;28;20019;-59
2022/01/16 05:28:55;;;;;;;6.03;4.40;;;20.10;41.10;;;;;;5115608;28;20034;-59
2022/01/16 05:31:21;;;;;;;5.57;5.03;;;20.20;41.10;;;;;;5115671;28;20015;-58
2022/01/16 05:33:48;;;;;;;6.47;4.70;;;20.10;41.00;;;;;;5115401;28;20020;-58
2022/01/16 05:36:13;;;;;;;5.68;4.93;;;20.20;41.00;;;;;;5115505;28;20032;-58
2022/01/16 05:38:40;;;;;;;7.88;4.75;;;20.20;41.00;;;;;;5115735;28;20022;-60
2022/01/16 05:41:06;;;;;;;5.53;4.65;;;20.10;41.00;;;;;;5114160;28;20016;-59
2022/01/16 05:43:32;;;;;;;5.75;5.25;;;20.10;41.10;;;;;;5115307;28;20494;-59
2022/01/16 05:45:58;;;;;;;5.60;4.57;;;20.20;41.10;;;;;;5115626;28;20492;-59
2022/01/16 05:48:26;;;;;;;5.38;4.88;;;20.20;41.00;;;;;;5115603;28;20020;-60
2022/01/16 05:50:51;;;;;;;6.50;5.10;;;20.20;41.00;;;;;;5116074;28;20027;-59
2022/01/16 05:53:18;;;;;;;7.05;5.20;;;20.10;40.90;;;;;;5115710;28;20054;-59
2022/01/16 05:55:44;;;;;;;5.50;4.85;;;20.20;41.00;;;;;;5115545;28;20069;-60
2022/01/16 05:58:10;;;;;;;5.25;4.75;;;20.20;40.90;;;;;;5115516;28;20020;-59
2022/01/16 06:00:37;;;;;;;5.72;4.75;;;20.20;40.90;;;;;;5115547;28;20043;-59
2022/01/16 06:03:03;;;;;;;5.95;5.00;;;20.20;40.90;;;;;;5115487;28;20111;-58
2022/01/16 06:05:29;;;;;;;5.03;4.50;;;20.20;40.90;;;;;;5115223;28;20087;-58
2022/01/16 06:08:07;;;;;;;5.40;4.90;;;20.20;41.00;;;;;;5113939;28;20067;-58
2022/01/16 06:10:34;;;;;;;4.88;4.43;;;20.20;41.00;;;;;;5115541;28;20020;-59
2022/01/16 06:13:00;;;;;;;6.20;5.13;;;20.20;40.90;;;;;;5114087;28;20046;-59
2022/01/16 06:15:25;;;;;;;6.07;5.20;;;20.20;41.00;;;;;;5115708;28;20103;-59
2022/01/16 06:17:52;;;;;;;7.18;5.10;;;20.20;41.00;;;;;;5115156;28;20469;-60
2022/01/16 06:20:18;;;;;;;6.55;5.03;;;20.20;40.90;;;;;;5115747;28;20019;-59
2022/01/16 06:22:44;;;;;;;6.15;4.97;;;20.30;41.00;;;;;;5115594;28;20378;-60
2022/01/16 06:25:10;;;;;;;6.07;5.47;;;20.20;40.90;;;;;;5115314;28;20032;-59
2022/01/16 06:27:36;;;;;;;5.15;4.63;;;20.20;40.90;;;;;;5118237;28;20020;-57
2022/01/16 06:30:03;;;;;;;5.95;4.65;;;20.20;40.90;;;;;;5118940;28;20014;-56
2022/01/16 06:32:33;;;;;;;5.30;4.70;;;20.20;40.80;;;;;;5119321;28;20008;-59
2022/01/16 06:34:58;;;;;;;5.40;4.78;;;20.20;40.90;;;;;;5119096;28;20458;-58
2022/01/16 06:37:25;;;;;;;5.78;5.18;;;20.20;40.90;;;;;;5119324;28;20099;-59
2022/01/16 06:39:52;;;;;;;5.45;4.68;;;20.20;41.00;;;;;;5119682;28;20015;-58
2022/01/16 06:42:18;;;;;;;6.13;5.00;;;20.20;41.00;;;;;;5118514;28;20015;-56
2022/01/16 06:44:43;;;;;;;5.75;4.78;;;20.20;40.90;;;;;;5118037;28;20020;-58
2022/01/16 06:47:10;;;;;;;8.55;4.85;;;20.20;40.90;;;;;;5118369;28;20019;-59
2022/01/16 06:49:36;;;;;;;5.57;4.95;;;20.20;40.80;;;;;;5117217;28;20106;-57
2022/01/16 06:52:03;;;;;;;6.63;5.43;;;20.30;40.90;;;;;;5118171;28;20015;-57
2022/01/16 06:54:29;;;;;;;7.65;4.57;;;20.20;40.90;;;;;;5117428;28;20012;-58
2022/01/16 06:56:55;;;;;;;6.72;5.15;;;20.20;40.90;;;;;;5117331;28;20043;-58
2022/01/16 06:59:22;;;;;;;5.72;5.13;;;20.20;40.90;;;;;;5118871;28;20016;-59
2022/01/16 07:01:48;;;;;;;5.78;5.13;;;20.20;40.90;;;;;;5118645;28;20532;-59
2022/01/16 07:04:14;;;;;;;5.68;5.05;;;20.20;40.80;;;;;;5118642;28;20110;-59
2022/01/16 07:06:40;;;;;;;6.88;5.13;;;20.20;40.80;;;;;;5117600;28;20478;-58
2022/01/16 07:09:06;;;;;;;5.50;4.75;;;20.20;40.80;;;;;;5118213;28;20044;-57
2022/01/16 07:11:31;;;;;;;5.38;4.88;;;20.30;40.80;;;;;;5118452;28;20026;-58
2022/01/16 07:13:57;;;;;;;6.85;4.97;;;20.30;40.80;;;;;;5118525;28;20098;-58
2022/01/16 07:16:24;;;;;;;5.57;4.78;;;20.20;40.80;;;;;;5118614;28;20028;-57
2022/01/16 07:18:50;;;;;;;6.88;5.22;;;20.20;40.80;;;;;;5118007;28;20020;-58
2022/01/16 07:21:16;;;;;;;5.28;4.75;;;20.30;40.70;;;;;;5116635;28;20023;-58
2022/01/16 07:23:43;;;;;;;6.13;4.72;;;20.20;40.70;;;;;;5116314;28;20015;-59
2022/01/16 07:26:10;;;;;;;5.63;4.88;;;20.30;40.80;;;;;;5118121;28;20034;-58
2022/01/16 07:28:35;;;;;;;6.03;5.43;;;20.20;40.70;;;;;;5117370;28;20537;-57
2022/01/16 07:31:01;;;;;;;5.70;4.80;;;20.30;40.90;;;;;;5117909;28;20047;-57
2022/01/16 07:33:28;;;;;;;5.55;4.97;;;20.20;40.80;;;;;;5117666;28;20012;-59
2022/01/16 07:35:55;;;;;;;5.68;4.93;;;20.20;40.90;;;;;;5099801;28;20071;-58
2022/01/16 07:38:21;;;;;;;5.25;4.75;;;20.20;40.90;;;;;;5119486;28;20022;-57
2022/01/16 07:40:47;;;;;;;5.80;4.88;;;20.20;40.90;;;;;;5120093;28;20012;-57
2022/01/16 07:43:14;;;;;;;5.07;4.57;;;20.20;40.90;;;;;;5120539;28;20064;-57
2022/01/16 07:45:39;;;;;;;8.23;5.00;;;20.20;40.90;;;;;;5119962;28;20028;-57
2022/01/16 07:48:07;;;;;;;5.05;4.55;;;20.20;40.90;;;;;;5119452;28;20053;-55
2022/01/16 07:50:33;;;;;;;9.88;5.05;;;20.20;40.90;;;;;;5119904;28;20023;-56
2022/01/16 07:52:59;;;;;;;5.85;4.90;;;20.20;41.00;;;;;;5118059;28;20019;-57
2022/01/16 07:55:26;;;;;;;6.25;4.65;;;20.20;40.90;;;;;;5119205;28;20032;-58
2022/01/16 07:57:55;;;;;;;5.35;4.55;;;20.20;40.90;;;;;;5119213;28;20043;-58
2022/01/16 08:00:22;;;;;;;5.38;4.57;;;20.20;40.90;;;;;;5119029;28;20020;-54
2022/01/16 08:02:49;;;;;;;5.28;4.50;;;20.30;40.90;;;;;;5118543;28;20016;-56
2022/01/16 08:05:15;;;;;;;5.40;4.80;;;20.20;40.90;;;;;;5118592;28;20512;-57
2022/01/16 08:07:42;;;;;;;5.20;4.70;;;20.20;41.00;;;;;;5117371;28;20108;-56
2022/01/16 08:10:09;;;;;;;5.00;4.50;;;20.20;40.90;;;;;;5119233;28;20011;-54
2022/01/16 08:12:35;;;;;;;7.30;4.88;;;20.20;40.90;;;;;;5118528;28;20076;-52
2022/01/16 08:15:01;;;;;;;5.22;4.70;;;20.20;41.00;;;;;;5116459;28;20456;-55
2022/01/16 08:17:28;;;;;;;6.00;4.85;;;20.20;41.00;;;;;;5118028;28;20027;-54
2022/01/16 08:19:54;;;;;;;6.00;4.70;;;20.20;41.00;;;;;;5118019;28;20038;-54
2022/01/16 08:22:20;;;;;;;5.13;4.63;;;20.20;41.00;;;;;;5116265;28;20028;-53
2022/01/16 08:24:46;;;;;;;5.43;4.93;;;20.20;40.90;;;;;;5118784;28;20051;-55
2022/01/16 08:27:15;;;;;;;5.88;4.88;;;20.30;41.00;;;;;;5120222;28;20068;-56
2022/01/16 08:29:43;;;;;;;5.50;4.60;;;20.30;40.90;;;;;;5120511;28;20019;-56
2022/01/16 08:32:09;;;;;;;6.05;5.32;;;20.20;40.90;;;;;;5120319;28;20016;-53
2022/01/16 08:34:36;;;;;;;7.78;5.15;;;20.30;41.50;;;;;;5119974;28;20030;-54
2022/01/16 08:37:02;;;;;;;6.05;4.60;;;20.20;40.90;;;;;;5118708;28;20049;-52
2022/01/16 08:39:29;;;;;;;5.22;4.57;;;20.30;41.00;;;;;;5119881;28;20020;-54
2022/01/16 08:41:55;;;;;;;5.40;4.82;;;20.20;41.00;;;;;;5119999;28;20038;-54
2022/01/16 08:44:22;;;;;;;5.60;4.75;;;20.20;41.00;;;;;;5119974;28;20512;-56
2022/01/16 08:46:48;;;;;;;5.45;4.95;;;20.20;41.00;;;;;;5120217;28;20047;-54
2022/01/16 08:49:15;;;;;;;5.35;4.55;;;20.20;40.90;;;;;;5119760;28;20474;-52
2022/01/16 08:51:40;;;;;;;5.43;4.88;;;20.30;40.90;;;;;;5120573;28;20020;-53
2022/01/16 08:54:07;;;;;;;5.18;4.63;;;20.20;40.90;;;;;;5120338;28;20359;-52
2022/01/16 08:56:34;;;;;;;6.28;4.72;;;20.20;41.50;;;;;;5120302;28;20104;-52
2022/01/16 08:59:01;;;;;;;6.55;4.85;;;20.20;40.90;;;;;;5119702;28;20015;-50
2022/01/16 09:01:27;;;;;;;5.40;4.78;;;20.30;41.00;;;;;;5120216;28;20152;-52
2022/01/16 09:03:53;;;;;;;5.63;5.03;;;20.30;40.90;;;;;;5119668;28;20037;-53
2022/01/16 09:06:19;;;;;;;4.82;4.38;;;20.30;40.90;;;;;;5118157;28;20015;-49
2022/01/16 09:08:45;;;;;;;5.20;4.70;;;20.30;40.90;;;;;;5117423;28;20047;-53
2022/01/16 09:11:11;;;;;;;7.15;4.93;;;20.30;40.90;;;;;;5118107;28;20553;-53
2022/01/16 09:13:40;;;;;;;6.10;4.85;;;20.30;40.90;;;;;;5117437;28;20140;-51
2022/01/16 09:16:06;;;;;;;4.88;4.30;;;20.30;40.90;;;;;;5117714;28;20027;-53
2022/01/16 09:18:33;;;;;;;4.72;4.30;;;20.30;40.90;;;;;;5117114;28;20008;-53
2022/01/16 09:21:00;;;;;;;5.10;4.60;;;20.30;40.90;;;;;;5117507;28;20004;-51
2022/01/16 09:23:25;;;;;;;5.18;4.68;;;20.30;40.80;;;;;;5117478;28;20031;-52
2022/01/16 09:25:51;;;;;;;5.57;4.75;;;20.30;40.80;;;;;;5117101;28;20076;-52
2022/01/16 09:28:18;;;;;;;4.97;4.07;;;20.30;40.90;;;;;;5118617;28;20019;-54
2022/01/16 09:30:44;;;;;;;5.97;4.47;;;20.30;40.90;;;;;;5116664;28;20031;-53
2022/01/16 09:33:10;;;;;;;4.75;4.10;;;20.30;40.90;;;;;;5117533;28;20039;-54
2022/01/16 09:35:36;;;;;;;4.93;4.40;;;20.30;40.80;;;;;;5117115;28;20099;-52
2022/01/16 09:38:03;;;;;;;4.95;4.55;;;20.30;40.90;;;;;;5116996;28;20051;-53
2022/01/16 09:40:29;;;;;;;5.35;4.85;;;20.30;40.90;;;;;;5118553;28;20023;-53
2022/01/16 09:42:56;;;;;;;8.00;5.03;;;20.30;40.90;;;;;;5118117;28;20038;-56
2022/01/16 09:45:23;;;;;;;6.10;4.70;;;20.30;40.90;;;;;;5117415;28;20024;-55
2022/01/16 09:47:48;;;;;;;6.00;4.68;;;20.30;40.80;;;;;;5117635;28;20016;-53
2022/01/16 09:50:24;;;;;;;7.30;5.10;;;20.30;40.90;;;;;;5118316;28;20381;-54
2022/01/16 09:52:50;;;;;;;4.70;4.30;;;20.30;40.90;;;;;;5118548;28;20038;-52
2022/01/16 09:55:16;;;;;;;5.35;4.65;;;20.30;40.90;;;;;;5117005;28;20016;-55
2022/01/16 09:57:43;;;;;;;6.35;4.60;;;20.40;40.90;;;;;;5118216;28;20069;-54
2022/01/16 10:00:16;;;;;;;4.80;4.28;;;20.30;40.90;;;;;;5119413;28;20020;-55
2022/01/16 10:02:43;;;;;;;5.03;4.53;;;20.40;40.90;;;;;;5122032;28;20011;-54
2022/01/16 10:05:25;;;;;;;5.05;4.45;;;20.40;41.00;;;;;;5122013;28;20111;-55
2022/01/16 10:07:51;;;;;;;4.78;4.20;;;20.40;40.90;;;;;;5121916;28;20031;-53
2022/01/16 10:10:17;;;;;;;6.07;4.32;;;20.40;40.80;;;;;;5122313;28;20107;-51
2022/01/16 10:12:50;;;;;;;6.25;4.60;;;20.40;40.90;;;;;;5122526;28;20047;-52
2022/01/16 10:15:17;;;;;;;5.90;4.65;;;20.40;40.90;;;;;;5122547;28;20038;-54
2022/01/16 10:17:47;;;;;;;5.13;4.50;;;20.40;40.90;;;;;;5122587;28;20019;-50
2022/01/16 10:20:16;;;;;;;5.90;4.68;;;20.40;40.90;;;;;;5121757;28;20053;-51
2022/01/16 10:22:44;;;;;;;5.05;4.40;;;20.40;40.90;;;;;;5121583;28;20028;-52
2022/01/16 10:25:11;;;;;;;5.13;4.63;;;20.40;40.90;;;;;;5121044;28;20095;-53
2022/01/16 10:27:38;;;;;;;6.60;4.90;;;20.40;40.90;;;;;;5121446;28;20023;-54
2022/01/16 10:30:07;;;;;;;5.05;4.20;;;20.40;40.90;;;;;;5119940;28;20016;-53
2022/01/16 10:32:35;;;;;;;4.78;4.32;;;20.40;41.00;;;;;;5121606;28;20011;-53
2022/01/16 10:35:15;;;;;;;5.10;4.60;;;20.40;41.00;;;;;;5120799;28;20012;-52
2022/01/16 10:37:42;;;;;;;4.40;4.00;;;20.30;40.90;;;;;;5120258;28;20019;-52
2022/01/16 10:40:32;;;;;;;4.90;4.50;;;20.30;41.00;;;;;;5120609;28;20016;-53
2022/01/16 10:43:04;;;;;;;5.97;4.67;;;20.40;41.00;;;;;;5119809;28;20020;-52
2022/01/16 10:45:30;;;;;;;6.05;4.40;;;20.30;41.00;;;;;;5120125;28;20027;-51
2022/01/16 10:47:57;;;;;;;5.15;4.65;;;20.40;41.00;;;;;;5120115;28;20008;-51
2022/01/16 10:50:24;;;;;;;5.47;4.20;;;20.40;41.00;;;;;;5119645;28;20023;-52
2022/01/16 10:53:05;;;;;;;5.80;4.82;;;20.40;41.00;;;;;;5118980;28;20488;-51
2022/01/16 10:55:33;;;;;;;5.65;4.53;;;20.30;41.00;;;;;;5118754;28;20069;-52
2022/01/16 10:58:07;;;;;;;4.65;4.25;;;20.30;41.00;;;;;;5119249;28;20012;-54
2022/01/16 11:00:33;;;;;;;4.80;4.22;;;20.30;40.90;;;;;;5119357;28;20027;-52
2022/01/16 11:03:01;;;;;;;4.75;4.30;;;20.40;41.00;;;;;;5119682;28;20020;-50
2022/01/16 11:05:28;;;;;;;5.55;4.43;;;20.30;40.90;;;;;;5119349;28;20023;-50
2022/01/16 11:07:58;;;;;;;4.60;4.10;;;20.40;40.90;;;;;;5119367;28;20036;-49
2022/01/16 11:10:26;;;;;;;;;;;20.40;40.80;;;;;;5120079;28;20019;-50
2022/01/16 11:12:53;;;;;;;4.47;4.07;;;20.40;40.70;;;;;;5118557;28;19915;-50
2022/01/16 11:15:19;;;;;;;4.53;4.13;;;20.40;40.80;;;;;;5119437;28;20011;-51
2022/01/16 11:17:45;;;;;;;4.75;4.35;;;20.40;40.80;;;;;;5119638;28;20369;-51
2022/01/16 11:20:11;;;;;;;5.38;4.65;;;20.40;40.80;;;;;;5119489;28;20115;-51
2022/01/16 11:22:58;;;;;;;5.63;4.18;;;20.40;40.80;;;;;;5120279;28;20016;-52
2022/01/16 11:25:34;;;;;;;4.70;4.20;;;20.40;40.80;;;;;;5118992;28;20434;-49
2022/01/16 11:28:20;;;;;;;5.93;4.40;;;20.30;40.90;;;;;;5119336;28;20107;-53
2022/01/16 11:31:07;;;;;;;4.35;3.95;;;20.40;40.90;;;;;;5119672;28;20501;-50
2022/01/16 11:33:53;;;;;;;4.30;3.88;;;20.40;40.80;;;;;;5120041;28;20043;-50
2022/01/16 11:36:40;;;;;;;4.53;4.07;;;20.40;40.80;;;;;;5119350;28;20023;-57
2022/01/16 11:39:06;;;;;;;3.95;3.65;;;20.40;40.80;;;;;;5118215;28;20011;-50
2022/01/16 11:41:55;;;;;;;5.53;4.22;;;20.40;40.80;;;;;;5118373;28;20035;-50
2022/01/16 11:44:45;;;;;;;5.75;4.50;;;20.40;40.80;;;;;;5119093;27;20023;-50
2022/01/16 11:47:11;;;;;;;5.18;4.28;;;20.50;40.80;;;;;;5117461;28;20024;-52
2022/01/16 11:49:40;;;;;;;5.65;4.40;;;20.40;40.70;;;;;;5100491;28;20382;-53
2022/01/16 11:52:17;;;;;;;4.28;3.88;;;20.40;41.30;;;;;;5118851;28;20057;-52
2022/01/16 11:54:47;;;;;;;4.43;3.75;;;20.50;40.70;;;;;;5118522;28;20019;-52
2022/01/16 11:57:26;;;;;;;4.80;4.30;;;20.40;40.70;;;;;;5119253;28;20011;-51
2022/01/16 12:00:12;;;;;;;4.88;4.22;;;20.40;40.80;;;;;;5118422;28;20042;-51
2022/01/16 12:02:48;;;;;;;4.82;4.35;;;20.40;40.80;;;;;;5118136;28;20028;-53
2022/01/16 12:05:41;;;;;;;5.05;3.92;;;20.50;40.80;;;;;;5118890;28;20023;-51
2022/01/16 12:08:20;;;;;;;4.68;4.15;;;20.50;40.70;;;;;;5115690;28;20043;-52
2022/01/16 12:10:47;;;;;;;4.50;4.07;;;20.50;40.80;;;;;;5117134;28;20020;-50
2022/01/16 12:13:52;;;;;;;4.57;4.07;;;20.50;40.70;;;;;;5117644;28;20008;-52
2022/01/16 12:16:40;;;;;;;4.82;3.70;;;20.50;40.70;;;;;;5117351;28;20042;-52
2022/01/16 12:19:31;;;;;;;4.30;3.90;;;20.40;40.80;;;;;;5116909;28;20016;-51
2022/01/16 12:21:57;;;;;;;5.03;4.45;;;20.40;40.70;;;;;;5115050;28;20043;-52
2022/01/16 12:24:56;;;;;;;4.75;4.25;;;20.40;40.80;;;;;;5114957;28;20039;-52
2022/01/16 12:27:27;;;;;;;4.40;4.00;;;20.50;40.80;;;;;;5110393;28;20019;-52
2022/01/16 12:30:16;;;;;;;4.60;3.97;;;20.50;40.80;;;;;;5116083;28;20492;-53
2022/01/16 12:32:51;;;;;;;4.47;3.88;;;20.50;40.80;;;;;;5115483;28;20020;-49
2022/01/16 12:35:44;;;;;;;4.78;4.20;;;20.50;40.70;;;;;;5116093;28;20100;-52
2022/01/16 12:38:19;;;;;;;4.57;4.15;;;20.40;40.80;;;;;;5115922;28;20023;-52
2022/01/16 12:40:58;;;;;;;4.28;3.78;;;20.40;40.80;;;;;;5114785;28;20154;-50
2022/01/16 12:45:56;;;;;;;4.40;3.95;;;20.50;40.80;;;;;;5115221;28;20043;-50
2022/01/16 12:48:22;;;;;;;4.65;4.13;;;20.50;40.80;;;;;;5115904;27;20130;-50
2022/01/16 12:50:49;;;;;;;4.15;3.75;;;20.50;40.80;;;;;;5115125;28;20031;-55
2022/01/16 12:53:33;;;;;;;4.03;3.55;;;20.50;40.80;;;;;;5115697;28;20350;-50
2022/01/16 12:56:16;;;;;;;4.28;3.83;;;20.50;40.70;;;;;;5114867;28;20015;-52
2022/01/16 12:58:43;;;;;;;6.18;3.97;;;20.50;40.80;;;;;;5115141;28;20023;-53
2022/01/16 13:01:10;;;;;;;3.95;3.55;;;20.50;40.80;;;;;;5115490;28;20016;-51
2022/01/16 13:03:36;;;;;;;5.10;4.00;;;20.50;40.80;;;;;;5115388;28;20015;-52
2022/01/16 13:06:27;;;;;;;4.68;3.83;;;20.50;40.80;;;;;;5115289;28;20034;-53
2022/01/16 13:09:07;;;;;;;5.03;3.70;;;20.50;40.80;;;;;;5114967;28;20040;-55
2022/01/16 13:11:38;;;;;;;4.70;3.85;;;20.40;40.80;;;;;;5115031;28;20035;-52
2022/01/16 13:14:06;;;;;;;5.22;4.10;;;20.40;40.90;;;;;;5115302;28;20044;-55
2022/01/16 13:16:37;;;;;;;4.28;3.88;;;20.40;41.00;;;;;;5114540;28;20478;-51
2022/01/16 13:19:22;;;;;;;4.53;3.92;;;20.40;41.00;;;;;;5114620;28;20465;-54
2022/01/16 13:22:01;;;;;;;3.88;3.50;;;20.40;41.00;;;;;;5116246;28;20047;-55
2022/01/16 13:24:28;;;;;;;5.72;3.85;;;20.30;41.10;;;;;;5117612;28;20041;-55
2022/01/16 13:27:16;;;;;;;4.03;3.65;;;20.30;41.00;;;;;;5117611;28;20036;-51
2022/01/16 13:30:27;;;;;;;4.32;3.85;;;20.30;41.10;;;;;;5117618;28;20024;-53
2022/01/16 13:33:03;;;;;;;4.10;3.47;;;20.30;41.20;;;;;;5118575;28;20140;-50
2022/01/16 13:35:29;;;;;;;3.72;3.42;;;20.20;41.30;;;;;;5118832;28;20020;-50
2022/01/16 13:38:11;;;;;;;4.07;3.70;;;20.20;41.40;;;;;;5119084;28;20028;-50
2022/01/16 13:40:38;;;;;;;4.07;3.67;;;20.10;41.60;;;;;;5118499;28;20999;-48
2022/01/16 13:43:07;;;;;;;4.20;3.58;;;20.00;41.70;;;;;;5118315;28;20461;-50
2022/01/16 13:45:40;;;;;;;4.38;3.85;;;20.00;41.80;;;;;;5118042;28;20019;-51